Webcam  Webcam


Lyn radar more information blitzortung!


Regn radar more information rain snow radar



Lokal METAR Rapport

   
EHVK - Volkel Rnlafb, Netherlands
Afstand fra station: SV 18 km
Opdateret: 12-08-2020 11:55
mest skyet  
mest skyet  
   Vind: ØSØ 3.6 m/s
Vind: ØSØ 3.6 m/s
Temperatur: 29°C
Hede Indeks: 30°C
Dugpunkt: 18°C
Luftfugtighed: 51%
Barometer: 1014 hPa
Skyet: mest skyet
Sigtbarhed: mere end 10 km
Sky detaljer: mest skyet 15000 ft
EHVK 120955Z AUTO 11007KT 080V180 9999 BKN150 29/18 Q1014 BLU NOSIG
EDLV - Niederrhein, Germany
Afstand fra station: SØ 25 km
Opdateret: 12-08-2020 11:50
Klart  
Klart  
   Vind: ØSØ 3.6 m/s
Vind: ØSØ 3.6 m/s
Temperatur: 29°C
Hede Indeks: 30°C
Dugpunkt: 18°C
Luftfugtighed: 51%
Barometer: 1015 hPa
Sigtbarhed: mere end 10 km
Sky detaljer: Klart
EDLV 120950Z 12007KT 100V170 CAVOK 29/18 Q1015
EHDL - Deelen Rnlafb, Netherlands
Afstand fra station: N 35 km
Opdateret: 12-08-2020 11:55
Klart  
Klart  
   Vind: varierer 2.6 m/s
Vind: varierer 2.6 m/s
Temperatur: 30°C
Hede Indeks: 30°C
Dugpunkt: 16°C
Luftfugtighed: 43%
Barometer: 1014 hPa
Skyet: Klart
Sigtbarhed: mere end 10 km
Sky detaljer: Klart
EHDL 120955Z AUTO VRB05KT 9999 NCD 30/16 Q1014 BLU
EHEH - Eindhoven Rnlafb, Netherlands
Afstand fra station: SV 48 km
Opdateret: 12-08-2020 11:55
Klart  
Klart  
   Vind: SØ 4.6 m/s
Vind: SØ 4.6 m/s
Temperatur: 29°C
Hede Indeks: 30°C
Dugpunkt: 18°C
Luftfugtighed: 51%
Barometer: 1014 hPa
Skyet: Klart
Sigtbarhed: mere end 10 km
Sky detaljer: Klart
EHEH 120955Z AUTO 13009KT 090V180 9999 NCD 29/18 Q1014 BLU NOSIG
EHGR - Gilze-Rijen Rnla, Netherlands
Afstand fra station: VSV 70 km
Opdateret: 12-08-2020 11:55
Klart  
Klart  
   Vind: SSØ 3.6 m/s
Vind: SSØ 3.6 m/s
Temperatur: 28°C
Hede Indeks: 29°C
Dugpunkt: 18°C
Luftfugtighed: 55%
Barometer: 1014 hPa
Skyet: Klart
Sigtbarhed: mere end 10 km
Sky detaljer: Klart
EHGR 120955Z AUTO 15007KT 070V150 9999 NCD 28/18 Q1014 BLU NOSIG
EBBL - Kleine-Brogel(Ba, Belgium
Afstand fra station: SSV 71 km
Opdateret: 12-08-2020 11:25
Delvis skyet  
Delvis skyet  
   Vind: øst 3.6 m/s
Vind: øst 3.6 m/s
Temperatur: 29°C
Hede Indeks: 29°C
Dugpunkt: 17°C
Luftfugtighed: 48%
Barometer: 1014 hPa
Skyet: Delvis skyet
Sigtbarhed: mere end 10 km
Sky detaljer: Delvis skyet 30000 ft
EBBL 120925Z 10007KT 9999 SCT300 29/17 Q1014 BLU BLU

Script udviklet af  Saratoga-weather.org Tilpasset til denne template af  Weerstation Leuven

Du finder også vores vejrinformationer på:

UK Metoffice

European Weather Network

WeatherCloud

Weather Underground

AWEKAS

Citizen Weather Observer Program (CWOP)

HAMweather, WeatherForYou, PWS Weather

Udstyr som vi anvender:

Vejrstation
Davis VP2

Vejrprogram
Meteobridge

Vejrserver
Meteobridge Pro

Davis VP2

Meteobridge

Meteobridge Pro